• Join FlightAware (Why Join?)
  • Login
  • US Flag 
02:01AM EST


 

Airport Tracker/Info


-or-


 

Live Flight TrackerFlight Track Log ✈ CTL22 ✈ 23-Apr-2013 ✈ KGRR - KAZO

Flight Track Log - Related Links

Times and Time Zones

All times are in EDT time to prevent confusion due to time zone crossing. See the CTL22 flight status page for this flight to view local times or setup timezone preferences in your user account.

Time Position Orientation Groundspeed Altitude Reporting Facility
EDT Latitude Longitude Course Direction KTS MPH feet Rate Location/Type
08:35PM 42.7644 -85.5317 180° South 160 184 2,900  Level Chicago Center
08:36PM 42.7156 -85.5256 175° South 173 199 3,000  Climbing Chicago Center
08:37PM 42.6681 -85.5169 172° South 174 200 3,000  Level Chicago Center
08:38PM 42.6219 -85.4958 161° South 174 200 3,000  Level Chicago Center
08:39PM 42.6531 -85.5330 182° South  Level Estimated
08:39PM 42.5661 -85.4742 164° South 173 199 3,100  Level Chicago Center
08:40PM 42.6151 -85.5331 180° South  Level FlightAware Approximate
08:40PM 42.5208 -85.4583 166° South 169 194 3,000  Level Chicago Center
08:41PM 42.4769 -85.4467 169° South 163 188 3,100  Climbing Chicago Center
08:42PM 42.4331 -85.4397 173° South 159 183 3,000 -60 Descending Chicago Center
08:43PM 42.3892 -85.4333 174° South 158 182 3,000  Level Chicago Center
08:44PM 42.3467 -85.4275 174° South 156 180 3,100  Climbing Chicago Center
08:45PM 42.2964 -85.4286 181° South 152 175 3,000 -60 Descending Chicago Center
08:46PM 42.2603 -85.4400 193° South 145 167 3,000  Level Chicago Center
08:47PM 42.2200 -85.4539 194° South 148 170 3,000  Level Chicago Center
08:48PM 42.1797 -85.4683 195° South 149 171 3,100 -60 Climbing Chicago Center
08:49PM 42.1294 -85.4639 176° South 151 174 2,900 -240 Descending Chicago Center
08:50PM 42.0911 -85.4675 184° South 153 176 2,700 -60 Descending Chicago Center
08:51PM 42.0958 -85.5156 278° West 145 167 2,800  Climbing Chicago Center
08:52PM 42.1342 -85.5303 344° North 148 170 2,800 -360 Level Chicago Center
08:53PM 42.1706 -85.5383 351° North 141 162 2,100 -660 Descending Chicago Center
08:54PM 42.1992 -85.5450 350° North 123 142 1,500 -600 Descending Chicago Center